In Rescue
 
Open Full Screen Window  High Contrast Mode
Wind Gusting 00 knots
05
May 25, 2022 9:02 PM CDT
Weather Information
Wind Direction
  050 °
Wind Speed
  05 kt (6 mph)
Wind Gust
  00 kt (0 mph)
Altimeter
29.94 in
Visibility
10 SM
Temperature
10° C
50° F
Dewpoint
08° C
46° F
Humidity
88%
1hr Rain Fall
00.00 in.
24hr Rain Fall
00.00 in.
Sky Condition
Overcast @ 4,100 ft
Broken @ 2,300 ft
Scattered @ 1,700 ft
MVFR

METAR KY63 260202Z AUTO 05005KT 10SM SCT017 BKN023 OVC041 10/08 A2994 RMK AO2 T01030082

FAA Disclaimer: The data displayed is for advisory purposes only and is not to be used for flight planning or operations.